sensor_id;sensor_type;location;lat;lon;timestamp;P1;durP1;ratioP1;P2;durP2;ratioP2
36291;SDS011;22327;51.208;6.418;2023-07-24T00:00:59;5.72;;;3.40;;
36291;SDS011;22327;51.208;6.418;2023-07-24T00:04:00;6.05;;;3.20;;
36291;SDS011;22327;51.208;6.418;2023-07-24T00:07:00;5.20;;;3.50;;
36291;SDS011;22327;51.208;6.418;2023-07-24T00:10:01;5.65;;;3.25;;
36291;SDS011;22327;51.208;6.418;2023-07-24T00:13:02;8.32;;;3.65;;
36291;SDS011;22327;51.208;6.418;2023-07-24T00:16:09;5.13;;;3.35;;
36291;SDS011;22327;51.208;6.418;2023-07-24T00:19:10;5.53;;;3.60;;
36291;SDS011;22327;51.208;6.418;2023-07-24T00:22:10;7.95;;;3.55;;
36291;SDS011;22327;51.208;6.418;2023-07-24T00:25:11;6.80;;;3.85;;
36291;SDS011;22327;51.208;6.418;2023-07-24T00:28:11;6.47;;;3.88;;
36291;SDS011;22327;51.208;6.418;2023-07-24T00:31:12;6.07;;;3.92;;
36291;SDS011;22327;51.208;6.418;2023-07-24T00:34:12;6.10;;;3.67;;
36291;SDS011;22327;51.208;6.418;2023-07-24T00:37:13;5.65;;;3.95;;
36291;SDS011;22327;51.208;6.418;2023-07-24T00:40:13;5.82;;;3.85;;
36291;SDS011;22327;51.208;6.418;2023-07-24T00:43:14;6.47;;;3.97;;
36291;SDS011;22327;51.208;6.418;2023-07-24T00:46:14;7.95;;;3.97;;
36291;SDS011;22327;51.208;6.418;2023-07-24T00:49:15;7.70;;;4.15;;
36291;SDS011;22327;51.208;6.418;2023-07-24T00:52:17;7.20;;;3.90;;
36291;SDS011;22327;51.208;6.418;2023-07-24T00:55:17;7.22;;;4.25;;
36291;SDS011;22327;51.208;6.418;2023-07-24T00:58:18;7.35;;;4.20;;
36291;SDS011;22327;51.208;6.418;2023-07-24T01:01:19;6.85;;;3.72;;
36291;SDS011;22327;51.208;6.418;2023-07-24T01:04:20;5.72;;;3.50;;
36291;SDS011;22327;51.208;6.418;2023-07-24T01:07:22;5.82;;;4.25;;
36291;SDS011;22327;51.208;6.418;2023-07-24T01:10:22;6.60;;;3.38;;
36291;SDS011;22327;51.208;6.418;2023-07-24T01:13:24;6.28;;;3.22;;
36291;SDS011;22327;51.208;6.418;2023-07-24T01:16:36;5.85;;;3.63;;
36291;SDS011;22327;51.208;6.418;2023-07-24T01:19:42;4.68;;;3.40;;
36291;SDS011;22327;51.208;6.418;2023-07-24T01:22:54;7.10;;;3.47;;
36291;SDS011;22327;51.208;6.418;2023-07-24T01:26:05;6.25;;;3.15;;
36291;SDS011;22327;51.208;6.418;2023-07-24T01:29:07;5.25;;;3.55;;
36291;SDS011;22327;51.208;6.418;2023-07-24T01:32:08;7.88;;;4.28;;
36291;SDS011;22327;51.208;6.418;2023-07-24T01:35:08;5.38;;;3.90;;
36291;SDS011;22327;51.208;6.418;2023-07-24T01:38:12;6.47;;;3.55;;
36291;SDS011;22327;51.208;6.418;2023-07-24T01:41:14;5.15;;;3.20;;
36291;SDS011;22327;51.208;6.418;2023-07-24T01:44:14;10.00;;;3.55;;
36291;SDS011;22327;51.208;6.418;2023-07-24T01:47:15;7.32;;;3.78;;
36291;SDS011;22327;51.208;6.418;2023-07-24T01:50:15;5.65;;;3.60;;
36291;SDS011;22327;51.208;6.418;2023-07-24T01:53:16;4.93;;;3.40;;
36291;SDS011;22327;51.208;6.418;2023-07-24T01:56:16;4.47;;;3.33;;
36291;SDS011;22327;51.208;6.418;2023-07-24T01:59:17;6.20;;;3.35;;
36291;SDS011;22327;51.208;6.418;2023-07-24T02:02:17;6.97;;;3.65;;
36291;SDS011;22327;51.208;6.418;2023-07-24T02:05:18;7.20;;;4.00;;
36291;SDS011;22327;51.208;6.418;2023-07-24T02:08:18;7.03;;;3.92;;
36291;SDS011;22327;51.208;6.418;2023-07-24T02:11:19;5.60;;;3.53;;
36291;SDS011;22327;51.208;6.418;2023-07-24T02:14:19;5.38;;;3.20;;
36291;SDS011;22327;51.208;6.418;2023-07-24T02:17:20;5.07;;;3.70;;
36291;SDS011;22327;51.208;6.418;2023-07-24T02:20:21;8.48;;;3.72;;
36291;SDS011;22327;51.208;6.418;2023-07-24T02:23:21;5.38;;;2.95;;
36291;SDS011;22327;51.208;6.418;2023-07-24T02:26:22;5.28;;;3.00;;
36291;SDS011;22327;51.208;6.418;2023-07-24T02:29:23;6.25;;;3.22;;
36291;SDS011;22327;51.208;6.418;2023-07-24T02:32:23;6.60;;;3.40;;
36291;SDS011;22327;51.208;6.418;2023-07-24T02:35:24;5.72;;;3.20;;
36291;SDS011;22327;51.208;6.418;2023-07-24T02:38:24;4.63;;;2.78;;
36291;SDS011;22327;51.208;6.418;2023-07-24T02:41:25;6.13;;;3.45;;
36291;SDS011;22327;51.208;6.418;2023-07-24T02:44:25;4.53;;;2.97;;
36291;SDS011;22327;51.208;6.418;2023-07-24T02:47:26;10.73;;;4.55;;
36291;SDS011;22327;51.208;6.418;2023-07-24T02:50:26;5.50;;;3.05;;
36291;SDS011;22327;51.208;6.418;2023-07-24T02:53:27;5.15;;;3.83;;
36291;SDS011;22327;51.208;6.418;2023-07-24T02:56:27;6.88;;;3.38;;
36291;SDS011;22327;51.208;6.418;2023-07-24T02:59:29;8.75;;;3.55;;
36291;SDS011;22327;51.208;6.418;2023-07-24T03:02:29;4.65;;;3.15;;
36291;SDS011;22327;51.208;6.418;2023-07-24T03:05:30;5.20;;;3.55;;
36291;SDS011;22327;51.208;6.418;2023-07-24T03:08:33;6.68;;;4.20;;
36291;SDS011;22327;51.208;6.418;2023-07-24T03:11:34;8.32;;;3.63;;
36291;SDS011;22327;51.208;6.418;2023-07-24T03:14:34;7.55;;;3.42;;
36291;SDS011;22327;51.208;6.418;2023-07-24T03:17:35;6.03;;;3.60;;
36291;SDS011;22327;51.208;6.418;2023-07-24T03:20:35;10.75;;;3.70;;
36291;SDS011;22327;51.208;6.418;2023-07-24T03:23:36;6.90;;;3.50;;
36291;SDS011;22327;51.208;6.418;2023-07-24T03:26:36;4.88;;;3.40;;
36291;SDS011;22327;51.208;6.418;2023-07-24T03:29:37;8.63;;;3.78;;
36291;SDS011;22327;51.208;6.418;2023-07-24T03:32:37;9.57;;;3.92;;
36291;SDS011;22327;51.208;6.418;2023-07-24T03:35:38;7.80;;;3.72;;
36291;SDS011;22327;51.208;6.418;2023-07-24T03:38:39;6.53;;;3.95;;
36291;SDS011;22327;51.208;6.418;2023-07-24T03:41:41;5.93;;;3.83;;
36291;SDS011;22327;51.208;6.418;2023-07-24T03:44:42;6.53;;;3.75;;
36291;SDS011;22327;51.208;6.418;2023-07-24T03:47:42;5.75;;;3.42;;
36291;SDS011;22327;51.208;6.418;2023-07-24T03:50:43;5.60;;;3.20;;
36291;SDS011;22327;51.208;6.418;2023-07-24T03:53:43;7.47;;;3.95;;
36291;SDS011;22327;51.208;6.418;2023-07-24T03:56:44;6.80;;;3.95;;
36291;SDS011;22327;51.208;6.418;2023-07-24T03:59:44;7.90;;;3.67;;
36291;SDS011;22327;51.208;6.418;2023-07-24T04:02:46;5.53;;;3.28;;
36291;SDS011;22327;51.208;6.418;2023-07-24T04:05:47;6.93;;;3.80;;
36291;SDS011;22327;51.208;6.418;2023-07-24T04:08:47;6.40;;;3.70;;
36291;SDS011;22327;51.208;6.418;2023-07-24T04:11:48;9.35;;;5.13;;
36291;SDS011;22327;51.208;6.418;2023-07-24T04:14:48;7.40;;;4.18;;
36291;SDS011;22327;51.208;6.418;2023-07-24T04:17:50;9.65;;;3.83;;
36291;SDS011;22327;51.208;6.418;2023-07-24T04:20:50;6.90;;;4.18;;
36291;SDS011;22327;51.208;6.418;2023-07-24T04:23:51;7.15;;;4.05;;
36291;SDS011;22327;51.208;6.418;2023-07-24T04:26:51;7.82;;;4.43;;
36291;SDS011;22327;51.208;6.418;2023-07-24T04:29:52;6.85;;;4.18;;
36291;SDS011;22327;51.208;6.418;2023-07-24T04:32:52;8.80;;;4.38;;
36291;SDS011;22327;51.208;6.418;2023-07-24T04:35:56;6.55;;;3.80;;
36291;SDS011;22327;51.208;6.418;2023-07-24T04:38:56;8.43;;;3.90;;
36291;SDS011;22327;51.208;6.418;2023-07-24T04:41:57;7.45;;;4.00;;
36291;SDS011;22327;51.208;6.418;2023-07-24T04:44:57;6.47;;;3.97;;
36291;SDS011;22327;51.208;6.418;2023-07-24T04:47:58;11.32;;;4.50;;
36291;SDS011;22327;51.208;6.418;2023-07-24T04:50:58;8.45;;;4.25;;
36291;SDS011;22327;51.208;6.418;2023-07-24T04:53:59;9.25;;;4.45;;
36291;SDS011;22327;51.208;6.418;2023-07-24T04:56:59;9.25;;;4.68;;
36291;SDS011;22327;51.208;6.418;2023-07-24T05:00:00;6.43;;;3.80;;
36291;SDS011;22327;51.208;6.418;2023-07-24T05:03:00;6.45;;;4.35;;
36291;SDS011;22327;51.208;6.418;2023-07-24T05:06:01;7.43;;;4.38;;
36291;SDS011;22327;51.208;6.418;2023-07-24T05:09:02;7.18;;;4.50;;
36291;SDS011;22327;51.208;6.418;2023-07-24T05:12:02;10.57;;;4.57;;
36291;SDS011;22327;51.208;6.418;2023-07-24T05:15:03;7.82;;;4.45;;
36291;SDS011;22327;51.208;6.418;2023-07-24T05:18:04;6.32;;;4.45;;
36291;SDS011;22327;51.208;6.418;2023-07-24T05:21:05;8.65;;;4.28;;
36291;SDS011;22327;51.208;6.418;2023-07-24T05:24:05;6.70;;;3.72;;
36291;SDS011;22327;51.208;6.418;2023-07-24T05:27:06;8.80;;;3.90;;
36291;SDS011;22327;51.208;6.418;2023-07-24T05:30:06;6.90;;;4.15;;
36291;SDS011;22327;51.208;6.418;2023-07-24T05:33:07;8.45;;;4.07;;
36291;SDS011;22327;51.208;6.418;2023-07-24T05:36:08;8.88;;;4.22;;
36291;SDS011;22327;51.208;6.418;2023-07-24T05:39:08;7.28;;;3.55;;
36291;SDS011;22327;51.208;6.418;2023-07-24T05:42:09;8.43;;;3.75;;
36291;SDS011;22327;51.208;6.418;2023-07-24T05:45:10;6.93;;;3.50;;
36291;SDS011;22327;51.208;6.418;2023-07-24T05:48:14;7.05;;;3.63;;
36291;SDS011;22327;51.208;6.418;2023-07-24T05:51:15;6.03;;;3.38;;
36291;SDS011;22327;51.208;6.418;2023-07-24T05:54:15;3.88;;;2.85;;
36291;SDS011;22327;51.208;6.418;2023-07-24T05:57:16;5.85;;;2.78;;
36291;SDS011;22327;51.208;6.418;2023-07-24T06:00:17;4.20;;;2.70;;
36291;SDS011;22327;51.208;6.418;2023-07-24T06:03:18;3.80;;;2.55;;
36291;SDS011;22327;51.208;6.418;2023-07-24T06:06:18;3.70;;;2.63;;
36291;SDS011;22327;51.208;6.418;2023-07-24T06:09:19;3.40;;;2.40;;
36291;SDS011;22327;51.208;6.418;2023-07-24T06:12:19;4.20;;;2.20;;
36291;SDS011;22327;51.208;6.418;2023-07-24T06:15:20;4.50;;;2.30;;
36291;SDS011;22327;51.208;6.418;2023-07-24T06:18:20;4.28;;;2.40;;
36291;SDS011;22327;51.208;6.418;2023-07-24T06:21:21;4.22;;;2.20;;
36291;SDS011;22327;51.208;6.418;2023-07-24T06:24:22;5.25;;;2.60;;
36291;SDS011;22327;51.208;6.418;2023-07-24T06:27:23;3.15;;;2.25;;
36291;SDS011;22327;51.208;6.418;2023-07-24T06:30:24;3.80;;;2.30;;
36291;SDS011;22327;51.208;6.418;2023-07-24T06:33:24;4.32;;;2.30;;
36291;SDS011;22327;51.208;6.418;2023-07-24T06:36:25;2.60;;;2.40;;
36291;SDS011;22327;51.208;6.418;2023-07-24T06:39:26;2.97;;;2.30;;
36291;SDS011;22327;51.208;6.418;2023-07-24T06:42:28;4.18;;;2.00;;
36291;SDS011;22327;51.208;6.418;2023-07-24T06:45:28;3.03;;;2.15;;
36291;SDS011;22327;51.208;6.418;2023-07-24T06:48:29;3.83;;;2.20;;
36291;SDS011;22327;51.208;6.418;2023-07-24T06:51:29;3.35;;;2.10;;
36291;SDS011;22327;51.208;6.418;2023-07-24T06:54:30;5.10;;;2.40;;
36291;SDS011;22327;51.208;6.418;2023-07-24T06:57:31;3.47;;;2.22;;
36291;SDS011;22327;51.208;6.418;2023-07-24T07:00:31;3.35;;;1.80;;
36291;SDS011;22327;51.208;6.418;2023-07-24T07:03:32;4.13;;;2.50;;
36291;SDS011;22327;51.208;6.418;2023-07-24T07:06:34;3.60;;;2.30;;
36291;SDS011;22327;51.208;6.418;2023-07-24T07:09:35;4.60;;;2.53;;
36291;SDS011;22327;51.208;6.418;2023-07-24T07:12:35;4.53;;;2.22;;
36291;SDS011;22327;51.208;6.418;2023-07-24T07:15:36;3.97;;;2.13;;
36291;SDS011;22327;51.208;6.418;2023-07-24T07:18:36;3.08;;;2.08;;
36291;SDS011;22327;51.208;6.418;2023-07-24T07:21:37;2.50;;;2.15;;
36291;SDS011;22327;51.208;6.418;2023-07-24T07:24:37;5.40;;;2.15;;
36291;SDS011;22327;51.208;6.418;2023-07-24T07:27:38;3.97;;;2.20;;
36291;SDS011;22327;51.208;6.418;2023-07-24T07:30:39;2.35;;;1.88;;
36291;SDS011;22327;51.208;6.418;2023-07-24T07:33:40;5.53;;;2.10;;
36291;SDS011;22327;51.208;6.418;2023-07-24T07:36:40;3.38;;;2.03;;
36291;SDS011;22327;51.208;6.418;2023-07-24T07:39:41;3.38;;;2.10;;
36291;SDS011;22327;51.208;6.418;2023-07-24T07:42:41;5.13;;;2.50;;
36291;SDS011;22327;51.208;6.418;2023-07-24T07:45:42;6.47;;;2.35;;
36291;SDS011;22327;51.208;6.418;2023-07-24T07:48:42;2.42;;;2.17;;
36291;SDS011;22327;51.208;6.418;2023-07-24T07:51:43;2.05;;;1.70;;
36291;SDS011;22327;51.208;6.418;2023-07-24T07:54:47;4.70;;;2.40;;
36291;SDS011;22327;51.208;6.418;2023-07-24T07:57:48;3.00;;;2.15;;
36291;SDS011;22327;51.208;6.418;2023-07-24T08:00:48;3.22;;;2.20;;
36291;SDS011;22327;51.208;6.418;2023-07-24T08:03:49;3.38;;;2.00;;
36291;SDS011;22327;51.208;6.418;2023-07-24T08:06:49;2.00;;;1.80;;
36291;SDS011;22327;51.208;6.418;2023-07-24T08:09:50;2.65;;;1.92;;
36291;SDS011;22327;51.208;6.418;2023-07-24T08:12:50;2.40;;;2.20;;
36291;SDS011;22327;51.208;6.418;2023-07-24T08:15:51;2.05;;;1.80;;
36291;SDS011;22327;51.208;6.418;2023-07-24T08:18:51;3.90;;;1.80;;
36291;SDS011;22327;51.208;6.418;2023-07-24T08:21:52;2.53;;;1.70;;
36291;SDS011;22327;51.208;6.418;2023-07-24T08:24:52;2.22;;;1.90;;
36291;SDS011;22327;51.208;6.418;2023-07-24T08:27:54;2.08;;;1.73;;
36291;SDS011;22327;51.208;6.418;2023-07-24T08:30:57;3.30;;;1.80;;
36291;SDS011;22327;51.208;6.418;2023-07-24T08:33:58;2.00;;;1.77;;
36291;SDS011;22327;51.208;6.418;2023-07-24T08:36:59;3.38;;;1.60;;
36291;SDS011;22327;51.208;6.418;2023-07-24T08:40:00;5.60;;;1.88;;
36291;SDS011;22327;51.208;6.418;2023-07-24T08:43:00;2.28;;;1.50;;
36291;SDS011;22327;51.208;6.418;2023-07-24T08:46:02;2.35;;;1.55;;
36291;SDS011;22327;51.208;6.418;2023-07-24T08:49:03;2.45;;;1.52;;
36291;SDS011;22327;51.208;6.418;2023-07-24T08:52:04;2.00;;;1.60;;
36291;SDS011;22327;51.208;6.418;2023-07-24T08:55:06;3.13;;;2.00;;
36291;SDS011;22327;51.208;6.418;2023-07-24T08:58:07;3.58;;;2.17;;
36291;SDS011;22327;51.208;6.418;2023-07-24T09:01:09;2.40;;;1.40;;
36291;SDS011;22327;51.208;6.418;2023-07-24T09:04:09;3.08;;;2.05;;
36291;SDS011;22327;51.208;6.418;2023-07-24T09:07:10;2.30;;;1.85;;
36291;SDS011;22327;51.208;6.418;2023-07-24T09:10:11;1.95;;;1.50;;
36291;SDS011;22327;51.208;6.418;2023-07-24T09:13:13;4.15;;;2.10;;
36291;SDS011;22327;51.208;6.418;2023-07-24T09:16:24;3.45;;;1.90;;
36291;SDS011;22327;51.208;6.418;2023-07-24T09:19:25;1.90;;;1.75;;
36291;SDS011;22327;51.208;6.418;2023-07-24T09:22:26;3.47;;;2.33;;
36291;SDS011;22327;51.208;6.418;2023-07-24T09:25:30;4.38;;;2.13;;
36291;SDS011;22327;51.208;6.418;2023-07-24T09:28:31;2.67;;;1.95;;
36291;SDS011;22327;51.208;6.418;2023-07-24T09:31:34;2.85;;;1.90;;
36291;SDS011;22327;51.208;6.418;2023-07-24T09:34:41;2.72;;;1.92;;
36291;SDS011;22327;51.208;6.418;2023-07-24T09:37:42;3.65;;;1.95;;
36291;SDS011;22327;51.208;6.418;2023-07-24T09:40:43;3.97;;;1.90;;
36291;SDS011;22327;51.208;6.418;2023-07-24T09:43:45;2.00;;;1.60;;
36291;SDS011;22327;51.208;6.418;2023-07-24T09:46:45;2.13;;;1.55;;
36291;SDS011;22327;51.208;6.418;2023-07-24T09:49:46;4.28;;;1.90;;
36291;SDS011;22327;51.208;6.418;2023-07-24T09:52:47;4.68;;;1.90;;
36291;SDS011;22327;51.208;6.418;2023-07-24T09:58:54;2.90;;;1.85;;
36291;SDS011;22327;51.208;6.418;2023-07-24T10:01:56;3.45;;;1.80;;
36291;SDS011;22327;51.208;6.418;2023-07-24T10:04:57;3.55;;;2.30;;
36291;SDS011;22327;51.208;6.418;2023-07-24T10:07:58;4.03;;;2.22;;
36291;SDS011;22327;51.208;6.418;2023-07-24T10:10:59;4.30;;;2.45;;
36291;SDS011;22327;51.208;6.418;2023-07-24T10:14:00;4.03;;;2.35;;
36291;SDS011;22327;51.208;6.418;2023-07-24T10:17:01;4.80;;;2.25;;
36291;SDS011;22327;51.208;6.418;2023-07-24T10:20:03;4.63;;;2.33;;
36291;SDS011;22327;51.208;6.418;2023-07-24T10:23:05;3.90;;;2.30;;
36291;SDS011;22327;51.208;6.418;2023-07-24T10:26:07;2.28;;;2.05;;
36291;SDS011;22327;51.208;6.418;2023-07-24T10:29:09;2.38;;;1.90;;
36291;SDS011;22327;51.208;6.418;2023-07-24T10:32:18;1.83;;;1.60;;
36291;SDS011;22327;51.208;6.418;2023-07-24T10:35:19;1.60;;;1.50;;
36291;SDS011;22327;51.208;6.418;2023-07-24T10:38:32;2.03;;;1.50;;
36291;SDS011;22327;51.208;6.418;2023-07-24T10:41:35;3.08;;;1.40;;
36291;SDS011;22327;51.208;6.418;2023-07-24T10:44:36;3.15;;;2.08;;
36291;SDS011;22327;51.208;6.418;2023-07-24T10:47:37;1.90;;;1.50;;
36291;SDS011;22327;51.208;6.418;2023-07-24T10:50:38;2.38;;;1.92;;
36291;SDS011;22327;51.208;6.418;2023-07-24T10:53:49;3.65;;;1.92;;
36291;SDS011;22327;51.208;6.418;2023-07-24T10:56:50;2.80;;;1.70;;
36291;SDS011;22327;51.208;6.418;2023-07-24T10:59:58;2.55;;;1.58;;
36291;SDS011;22327;51.208;6.418;2023-07-24T11:02:59;5.13;;;1.85;;
36291;SDS011;22327;51.208;6.418;2023-07-24T11:06:00;4.22;;;1.55;;
36291;SDS011;22327;51.208;6.418;2023-07-24T11:09:02;2.55;;;1.52;;
36291;SDS011;22327;51.208;6.418;2023-07-24T11:12:12;3.05;;;1.48;;
36291;SDS011;22327;51.208;6.418;2023-07-24T11:15:14;4.13;;;1.90;;
36291;SDS011;22327;51.208;6.418;2023-07-24T11:18:15;1.42;;;1.30;;
36291;SDS011;22327;51.208;6.418;2023-07-24T11:21:15;4.53;;;1.90;;
36291;SDS011;22327;51.208;6.418;2023-07-24T11:24:19;4.68;;;1.90;;
36291;SDS011;22327;51.208;6.418;2023-07-24T11:27:19;2.53;;;1.60;;
36291;SDS011;22327;51.208;6.418;2023-07-24T11:30:20;5.25;;;3.00;;
36291;SDS011;22327;51.208;6.418;2023-07-24T11:33:22;5.03;;;2.13;;
36291;SDS011;22327;51.208;6.418;2023-07-24T11:36:23;4.00;;;2.08;;
36291;SDS011;22327;51.208;6.418;2023-07-24T11:39:24;2.50;;;1.48;;
36291;SDS011;22327;51.208;6.418;2023-07-24T11:42:25;2.60;;;1.40;;
36291;SDS011;22327;51.208;6.418;2023-07-24T11:45:27;2.90;;;1.50;;
36291;SDS011;22327;51.208;6.418;2023-07-24T11:48:27;2.55;;;1.55;;
36291;SDS011;22327;51.208;6.418;2023-07-24T11:51:28;2.05;;;1.25;;
36291;SDS011;22327;51.208;6.418;2023-07-24T11:54:29;1.50;;;1.40;;
36291;SDS011;22327;51.208;6.418;2023-07-24T11:57:29;1.63;;;1.30;;
36291;SDS011;22327;51.208;6.418;2023-07-24T12:00:32;1.27;;;1.15;;
36291;SDS011;22327;51.208;6.418;2023-07-24T12:03:33;2.07;;;1.30;;
36291;SDS011;22327;51.208;6.418;2023-07-24T12:06:34;1.52;;;1.25;;
36291;SDS011;22327;51.208;6.418;2023-07-24T12:09:35;1.60;;;1.30;;
36291;SDS011;22327;51.208;6.418;2023-07-24T12:12:48;2.53;;;1.40;;
36291;SDS011;22327;51.208;6.418;2023-07-24T12:15:48;1.33;;;1.00;;
36291;SDS011;22327;51.208;6.418;2023-07-24T12:18:49;1.40;;;1.30;;
36291;SDS011;22327;51.208;6.418;2023-07-24T12:21:50;1.23;;;1.10;;
36291;SDS011;22327;51.208;6.418;2023-07-24T12:24:50;2.55;;;1.20;;
36291;SDS011;22327;51.208;6.418;2023-07-24T12:27:51;2.25;;;1.23;;
36291;SDS011;22327;51.208;6.418;2023-07-24T12:30:51;1.60;;;1.15;;
36291;SDS011;22327;51.208;6.418;2023-07-24T12:33:52;1.20;;;1.10;;
36291;SDS011;22327;51.208;6.418;2023-07-24T12:36:52;1.25;;;1.00;;
36291;SDS011;22327;51.208;6.418;2023-07-24T12:39:54;1.20;;;1.00;;
36291;SDS011;22327;51.208;6.418;2023-07-24T12:42:54;1.10;;;1.00;;
36291;SDS011;22327;51.208;6.418;2023-07-24T12:45:55;1.35;;;1.00;;
36291;SDS011;22327;51.208;6.418;2023-07-24T12:48:55;1.35;;;1.10;;
36291;SDS011;22327;51.208;6.418;2023-07-24T12:51:56;1.75;;;1.08;;
36291;SDS011;22327;51.208;6.418;2023-07-24T12:54:56;1.17;;;1.00;;
36291;SDS011;22327;51.208;6.418;2023-07-24T12:57:57;2.15;;;0.90;;
36291;SDS011;22327;51.208;6.418;2023-07-24T13:00:57;1.02;;;0.93;;
36291;SDS011;22327;51.208;6.418;2023-07-24T13:03:58;1.73;;;1.00;;
36291;SDS011;22327;51.208;6.418;2023-07-24T13:06:58;1.10;;;1.00;;
36291;SDS011;22327;51.208;6.418;2023-07-24T13:10:00;0.95;;;0.85;;
36291;SDS011;22327;51.208;6.418;2023-07-24T13:13:01;2.15;;;1.00;;
36291;SDS011;22327;51.208;6.418;2023-07-24T13:16:02;1.13;;;0.90;;
36291;SDS011;22327;51.208;6.418;2023-07-24T13:19:03;0.82;;;0.80;;
36291;SDS011;22327;51.208;6.418;2023-07-24T13:22:03;1.05;;;0.88;;
36291;SDS011;22327;51.208;6.418;2023-07-24T13:25:04;2.83;;;0.93;;
36291;SDS011;22327;51.208;6.418;2023-07-24T13:28:06;0.75;;;0.75;;
36291;SDS011;22327;51.208;6.418;2023-07-24T13:31:13;2.15;;;0.70;;
36291;SDS011;22327;51.208;6.418;2023-07-24T13:34:15;1.00;;;0.80;;
36291;SDS011;22327;51.208;6.418;2023-07-24T13:37:19;1.88;;;0.75;;
36291;SDS011;22327;51.208;6.418;2023-07-24T13:40:19;0.70;;;0.70;;
36291;SDS011;22327;51.208;6.418;2023-07-24T13:43:20;1.92;;;0.93;;
36291;SDS011;22327;51.208;6.418;2023-07-24T13:46:20;1.10;;;0.90;;
36291;SDS011;22327;51.208;6.418;2023-07-24T13:49:21;1.00;;;0.80;;
36291;SDS011;22327;51.208;6.418;2023-07-24T13:52:22;1.55;;;0.80;;
36291;SDS011;22327;51.208;6.418;2023-07-24T13:55:22;0.95;;;0.60;;
36291;SDS011;22327;51.208;6.418;2023-07-24T13:58:22;1.40;;;1.10;;
36291;SDS011;22327;51.208;6.418;2023-07-24T14:01:23;3.25;;;1.20;;
36291;SDS011;22327;51.208;6.418;2023-07-24T14:04:24;1.10;;;1.00;;
36291;SDS011;22327;51.208;6.418;2023-07-24T14:07:24;2.95;;;1.30;;
36291;SDS011;22327;51.208;6.418;2023-07-24T14:10:25;3.08;;;1.13;;
36291;SDS011;22327;51.208;6.418;2023-07-24T14:13:25;2.65;;;1.17;;
36291;SDS011;22327;51.208;6.418;2023-07-24T14:16:26;2.72;;;1.30;;
36291;SDS011;22327;51.208;6.418;2023-07-24T14:19:26;1.35;;;1.23;;
36291;SDS011;22327;51.208;6.418;2023-07-24T14:22:27;1.98;;;1.50;;
36291;SDS011;22327;51.208;6.418;2023-07-24T14:25:27;2.55;;;1.25;;
36291;SDS011;22327;51.208;6.418;2023-07-24T14:28:28;2.78;;;1.05;;
36291;SDS011;22327;51.208;6.418;2023-07-24T14:31:28;1.50;;;1.40;;
36291;SDS011;22327;51.208;6.418;2023-07-24T14:34:29;1.90;;;0.98;;
36291;SDS011;22327;51.208;6.418;2023-07-24T14:37:30;2.35;;;1.08;;
36291;SDS011;22327;51.208;6.418;2023-07-24T14:40:31;5.20;;;1.42;;
36291;SDS011;22327;51.208;6.418;2023-07-24T14:43:31;1.70;;;1.10;;
36291;SDS011;22327;51.208;6.418;2023-07-24T14:46:32;1.20;;;1.10;;
36291;SDS011;22327;51.208;6.418;2023-07-24T14:49:32;1.85;;;1.20;;
36291;SDS011;22327;51.208;6.418;2023-07-24T14:52:33;1.45;;;0.90;;
36291;SDS011;22327;51.208;6.418;2023-07-24T14:55:33;1.02;;;0.93;;
36291;SDS011;22327;51.208;6.418;2023-07-24T14:58:34;1.33;;;1.10;;
36291;SDS011;22327;51.208;6.418;2023-07-24T15:01:34;1.95;;;1.27;;
36291;SDS011;22327;51.208;6.418;2023-07-24T15:04:35;2.20;;;1.50;;
36291;SDS011;22327;51.208;6.418;2023-07-24T15:07:35;1.90;;;1.80;;
36291;SDS011;22327;51.208;6.418;2023-07-24T15:10:36;2.03;;;1.70;;
36291;SDS011;22327;51.208;6.418;2023-07-24T15:13:36;2.03;;;1.83;;
36291;SDS011;22327;51.208;6.418;2023-07-24T15:16:37;1.88;;;1.55;;
36291;SDS011;22327;51.208;6.418;2023-07-24T15:19:37;2.38;;;1.58;;
36291;SDS011;22327;51.208;6.418;2023-07-24T15:22:38;1.60;;;1.50;;
36291;SDS011;22327;51.208;6.418;2023-07-24T15:25:38;2.35;;;1.65;;
36291;SDS011;22327;51.208;6.418;2023-07-24T15:28:39;2.00;;;1.88;;
36291;SDS011;22327;51.208;6.418;2023-07-24T15:31:40;1.83;;;1.65;;
36291;SDS011;22327;51.208;6.418;2023-07-24T15:34:40;2.30;;;1.60;;
36291;SDS011;22327;51.208;6.418;2023-07-24T15:37:41;2.55;;;2.15;;
36291;SDS011;22327;51.208;6.418;2023-07-24T15:40:43;3.08;;;2.22;;
36291;SDS011;22327;51.208;6.418;2023-07-24T15:43:43;2.47;;;2.28;;
36291;SDS011;22327;51.208;6.418;2023-07-24T15:46:44;3.17;;;2.45;;
36291;SDS011;22327;51.208;6.418;2023-07-24T15:49:46;3.08;;;2.33;;
36291;SDS011;22327;51.208;6.418;2023-07-24T15:52:47;3.80;;;2.45;;
36291;SDS011;22327;51.208;6.418;2023-07-24T15:55:47;5.47;;;3.13;;
36291;SDS011;22327;51.208;6.418;2023-07-24T15:58:48;3.50;;;3.20;;
36291;SDS011;22327;51.208;6.418;2023-07-24T16:01:49;3.10;;;2.80;;
36291;SDS011;22327;51.208;6.418;2023-07-24T16:04:50;2.10;;;1.80;;
36291;SDS011;22327;51.208;6.418;2023-07-24T16:07:54;3.28;;;2.13;;
36291;SDS011;22327;51.208;6.418;2023-07-24T16:10:54;2.95;;;2.08;;
36291;SDS011;22327;51.208;6.418;2023-07-24T16:13:56;3.15;;;1.88;;
36291;SDS011;22327;51.208;6.418;2023-07-24T16:16:56;2.95;;;1.98;;
36291;SDS011;22327;51.208;6.418;2023-07-24T16:19:57;4.30;;;2.92;;
36291;SDS011;22327;51.208;6.418;2023-07-24T16:22:57;5.97;;;3.08;;
36291;SDS011;22327;51.208;6.418;2023-07-24T16:25:58;4.75;;;3.70;;
36291;SDS011;22327;51.208;6.418;2023-07-24T16:28:58;3.38;;;2.97;;
36291;SDS011;22327;51.208;6.418;2023-07-24T16:31:59;4.65;;;3.20;;
36291;SDS011;22327;51.208;6.418;2023-07-24T16:34:59;3.20;;;2.90;;
36291;SDS011;22327;51.208;6.418;2023-07-24T16:38:00;3.60;;;2.45;;
36291;SDS011;22327;51.208;6.418;2023-07-24T16:41:01;2.30;;;2.00;;
36291;SDS011;22327;51.208;6.418;2023-07-24T16:44:02;3.42;;;2.33;;
36291;SDS011;22327;51.208;6.418;2023-07-24T16:47:03;2.30;;;1.90;;
36291;SDS011;22327;51.208;6.418;2023-07-24T16:50:04;4.93;;;2.55;;
36291;SDS011;22327;51.208;6.418;2023-07-24T16:53:05;2.17;;;1.65;;
36291;SDS011;22327;51.208;6.418;2023-07-24T16:56:05;2.47;;;1.77;;
36291;SDS011;22327;51.208;6.418;2023-07-24T16:59:06;1.70;;;1.50;;
36291;SDS011;22327;51.208;6.418;2023-07-24T17:02:06;2.10;;;1.60;;
36291;SDS011;22327;51.208;6.418;2023-07-24T17:05:07;2.03;;;1.70;;
36291;SDS011;22327;51.208;6.418;2023-07-24T17:08:08;2.22;;;1.75;;
36291;SDS011;22327;51.208;6.418;2023-07-24T17:11:08;1.70;;;1.50;;
36291;SDS011;22327;51.208;6.418;2023-07-24T17:14:09;1.98;;;1.67;;
36291;SDS011;22327;51.208;6.418;2023-07-24T17:17:10;1.90;;;1.73;;
36291;SDS011;22327;51.208;6.418;2023-07-24T17:20:10;2.72;;;1.80;;
36291;SDS011;22327;51.208;6.418;2023-07-24T17:23:11;2.15;;;1.70;;
36291;SDS011;22327;51.208;6.418;2023-07-24T17:26:11;1.95;;;1.83;;
36291;SDS011;22327;51.208;6.418;2023-07-24T17:29:12;2.15;;;1.67;;
36291;SDS011;22327;51.208;6.418;2023-07-24T17:32:12;3.03;;;1.80;;
36291;SDS011;22327;51.208;6.418;2023-07-24T17:35:13;2.53;;;2.00;;
36291;SDS011;22327;51.208;6.418;2023-07-24T17:38:14;2.38;;;2.17;;
36291;SDS011;22327;51.208;6.418;2023-07-24T17:41:14;2.67;;;2.20;;
36291;SDS011;22327;51.208;6.418;2023-07-24T17:44:15;2.15;;;1.95;;
36291;SDS011;22327;51.208;6.418;2023-07-24T17:47:15;3.30;;;2.38;;
36291;SDS011;22327;51.208;6.418;2023-07-24T17:50:16;2.60;;;2.40;;
36291;SDS011;22327;51.208;6.418;2023-07-24T17:53:17;2.95;;;1.98;;
36291;SDS011;22327;51.208;6.418;2023-07-24T17:56:17;4.50;;;2.38;;
36291;SDS011;22327;51.208;6.418;2023-07-24T17:59:18;3.13;;;2.70;;
36291;SDS011;22327;51.208;6.418;2023-07-24T18:02:18;4.25;;;2.67;;
36291;SDS011;22327;51.208;6.418;2023-07-24T18:05:19;3.65;;;2.90;;
36291;SDS011;22327;51.208;6.418;2023-07-24T18:08:19;3.25;;;2.95;;
36291;SDS011;22327;51.208;6.418;2023-07-24T18:11:20;3.92;;;3.53;;
36291;SDS011;22327;51.208;6.418;2023-07-24T18:14:20;4.05;;;2.97;;